Time;durP1;ratioP1;P1;durP2;ratioP2;P2;SDS_P1;SDS_P2;PMS_P1;PMS_P2;Temp;Humidity;BMP_temperature;BMP_pressure;BME280_temperature;BME280_humidity;BME280_pressure;Samples;Min_cycle;Max_cycle;Signal;HPM_P1;HPM_P2
2022/01/09 00:00:11;;;;;;;0.70;0.60;;;;;;;6.74;63.17;98994.22;4901718;28;98257;-52
2022/01/09 00:02:36;;;;;;;1.93;0.83;;;;;;;6.78;62.97;99000.88;4902137;28;97662;-52
2022/01/09 00:05:02;;;;;;;0.80;0.53;;;;;;;6.77;63.13;98990.47;4903237;28;97082;-50
2022/01/09 00:07:27;;;;;;;1.53;1.20;;;;;;;6.78;62.94;98995.41;4905182;28;98571;-51
2022/01/09 00:09:53;;;;;;;1.13;0.93;;;;;;;6.79;62.83;98985.97;4902084;28;124229;-51
2022/01/09 00:12:18;;;;;;;0.70;0.70;;;;;;;6.79;62.81;98982.50;4903120;28;96949;-51
2022/01/09 00:14:43;;;;;;;2.30;0.70;;;;;;;6.80;63.04;98984.72;4901965;28;117231;-52
2022/01/09 00:17:08;;;;;;;1.43;0.63;;;;;;;6.83;62.85;98972.03;4901745;28;126673;-51
2022/01/09 00:19:34;;;;;;;0.80;0.70;;;;;;;6.82;62.78;98968.56;4897866;28;126343;-49
2022/01/09 00:21:59;;;;;;;1.47;0.70;;;;;;;6.84;63.25;98965.31;4902863;28;113145;-51
2022/01/09 00:24:24;;;;;;;2.53;0.70;;;;;;;6.88;62.77;98965.78;4902730;28;98636;-51
2022/01/09 00:26:50;;;;;;;0.57;0.57;;;;;;;6.93;63.14;98961.53;4903842;28;108411;-48
2022/01/09 00:29:15;;;;;;;1.03;0.67;;;;;;;6.91;62.98;98959.31;4901499;28;119607;-52
2022/01/09 00:31:40;;;;;;;1.53;0.70;;;;;;;6.89;63.00;98956.34;4902615;28;107555;-52
2022/01/09 00:34:06;;;;;;;0.70;0.50;;;;;;;6.91;63.14;98953.09;4903156;28;96868;-51
2022/01/09 00:36:31;;;;;;;0.80;0.80;;;;;;;6.89;62.94;98950.88;4900735;28;96864;-52
2022/01/09 00:38:57;;;;;;;0.93;0.87;;;;;;;6.87;62.90;98939.72;4901595;28;125453;-52
2022/01/09 00:41:23;;;;;;;1.00;0.77;;;;;;;6.89;62.80;98939.19;4903258;28;96928;-51
2022/01/09 00:43:48;;;;;;;1.03;0.60;;;;;;;6.86;62.49;98940.22;4907473;28;97143;-50
2022/01/09 00:46:14;;;;;;;2.50;0.80;;;;;;;6.82;62.61;98930.31;4905949;28;97432;-51
2022/01/09 00:48:39;;;;;;;0.83;0.83;;;;;;;6.82;62.51;98916.63;4906398;28;126614;-52
2022/01/09 00:51:04;;;;;;;0.70;0.70;;;;;;;6.84;62.64;98920.88;4906835;28;97208;-50
2022/01/09 00:53:30;;;;;;;0.90;0.80;;;;;;;6.82;62.70;98918.63;4903894;28;116647;-49
2022/01/09 00:55:55;;;;;;;0.60;0.60;;;;;;;6.82;63.16;98913.16;4906443;28;97328;-50
2022/01/09 00:58:20;;;;;;;2.70;1.03;;;;;;;6.84;62.84;98913.38;4903061;28;128192;-52
2022/01/09 01:00:46;;;;;;;2.73;0.80;;;;;;;6.86;62.60;98912.91;4904968;28;118244;-51
2022/01/09 01:03:11;;;;;;;0.90;0.90;;;;;;;6.90;62.34;98916.84;4905634;28;96745;-51
2022/01/09 01:05:37;;;;;;;0.57;0.57;;;;;;;6.86;62.56;98913.63;4905146;28;97370;-54
2022/01/09 01:08:03;;;;;;;0.83;0.83;;;;;;;6.90;62.82;98908.63;4905147;28;98314;-50
2022/01/09 01:10:28;;;;;;;5.93;1.00;;;;;;;6.91;62.55;98912.84;4906647;28;97157;-49
2022/01/09 01:12:53;;;;;;;0.90;0.87;;;;;;;6.93;62.56;98902.13;4905601;28;97374;-51
2022/01/09 01:15:19;;;;;;;0.90;0.67;;;;;;;6.91;62.63;98904.66;4904845;28;97140;-51
2022/01/09 01:17:45;;;;;;;1.17;0.97;;;;;;;6.92;62.70;98899.94;4908981;28;97326;-52
2022/01/09 01:20:11;;;;;;;0.70;0.70;;;;;;;6.90;62.55;98897.72;4904916;28;96851;-49
2022/01/09 01:22:37;;;;;;;1.03;1.00;;;;;;;6.88;62.21;98886.53;4906085;28;97355;-48
2022/01/09 01:25:05;;;;;;;1.00;0.90;;;;;;;6.89;62.71;98890.75;4904778;28;101089;-52
2022/01/09 01:27:30;;;;;;;3.03;1.23;;;;;;;6.90;62.54;98881.31;4905379;28;96822;-52
2022/01/09 01:29:56;;;;;;;1.03;0.90;;;;;;;6.90;62.53;98894.97;4907492;28;103723;-51
2022/01/09 01:32:22;;;;;;;1.00;1.00;;;;;;;6.88;62.56;98878.31;4906235;28;96869;-51
2022/01/09 01:34:48;;;;;;;1.03;0.90;;;;;;;6.91;62.59;98877.31;4905775;28;98567;-52
2022/01/09 01:37:14;;;;;;;2.97;0.70;;;;;;;6.90;62.14;98875.84;4905887;28;96913;-52
2022/01/09 01:39:39;;;;;;;0.80;0.80;;;;;;;6.85;62.24;98862.97;4908287;28;96708;-52
2022/01/09 01:42:05;;;;;;;1.10;1.10;;;;;;;6.87;62.65;98871.38;4904795;28;97219;-51
2022/01/09 01:44:49;;;;;;;2.43;0.80;;;;;;;6.88;62.47;98861.91;4906198;28;97374;-50
2022/01/09 01:47:17;;;;;;;1.20;1.10;;;;;;;6.89;62.60;98862.66;4907054;28;102025;-50
2022/01/09 01:49:43;;;;;;;1.20;1.10;;;;;;;6.91;62.66;98863.66;4903992;28;96768;-50
2022/01/09 01:52:09;;;;;;;1.00;0.90;;;;;;;6.89;62.58;98855.22;4906648;28;97211;-51
2022/01/09 01:54:35;;;;;;;1.20;1.00;;;;;;;6.89;62.50;98855.22;4906160;28;97510;-50
2022/01/09 01:57:02;;;;;;;4.83;0.97;;;;;;;6.89;62.55;98854.47;4904804;28;96864;-48
2022/01/09 01:59:28;;;;;;;1.27;0.90;;;;;;;6.87;62.54;98855.00;4906213;28;97067;-52
2022/01/09 02:01:53;;;;;;;0.80;0.80;;;;;;;6.86;62.49;98850.03;4902358;28;115300;-52
2022/01/09 02:04:18;;;;;;;1.20;1.20;;;;;;;6.85;62.33;98843.81;4904740;28;127262;-51
2022/01/09 02:06:44;;;;;;;1.00;1.00;;;;;;;6.82;62.94;98836.63;4905658;28;104619;-48
2022/01/09 02:09:10;;;;;;;1.30;1.30;;;;;;;6.82;62.63;98840.13;4904398;28;103296;-52
2022/01/09 02:11:35;;;;;;;1.17;1.07;;;;;;;6.85;62.62;98829.41;4906032;28;97257;-52
2022/01/09 02:14:01;;;;;;;2.10;1.00;;;;;;;6.87;62.69;98833.13;4906762;28;97440;-52
2022/01/09 02:16:26;;;;;;;0.87;0.87;;;;;;;6.89;62.66;98830.63;4904130;28;96784;-51
2022/01/09 02:18:52;;;;;;;1.30;1.20;;;;;;;6.90;62.84;98834.84;4904913;28;97028;-52
2022/01/09 02:21:18;;;;;;;0.90;0.80;;;;;;;6.91;62.51;98839.03;4904562;28;97449;-51
2022/01/09 02:23:47;;;;;;;1.30;1.20;;;;;;;6.93;62.07;98833.81;4901086;28;97217;-51
2022/01/09 02:26:17;;;;;;;1.00;1.00;;;;;;;6.94;62.69;98837.28;4905416;28;100284;-52
2022/01/09 02:28:43;;;;;;;1.30;1.20;;;;;;;6.95;62.71;98834.03;4907150;28;96881;-51
2022/01/09 02:31:09;;;;;;;1.10;1.00;;;;;;;6.98;62.72;98822.09;4907776;28;96951;-52
2022/01/09 02:33:34;;;;;;;1.73;0.97;;;;;;;6.98;62.38;98824.81;4904784;28;97787;-51
2022/01/09 02:36:00;;;;;;;1.00;0.90;;;;;;;6.98;62.84;98815.88;4904041;28;120764;-52
2022/01/09 02:38:25;;;;;;;1.17;0.90;;;;;;;6.95;62.42;98817.63;4905343;28;97040;-52
2022/01/09 02:40:52;;;;;;;0.90;0.90;;;;;;;6.98;62.81;98819.34;4904671;28;97001;-52
2022/01/09 02:43:19;;;;;;;1.10;1.00;;;;;;;6.99;62.59;98814.63;4905537;28;97339;-51
2022/01/09 02:45:47;;;;;;;0.87;0.87;;;;;;;7.00;62.69;98814.13;4899146;28;97356;-52
2022/01/09 02:48:12;;;;;;;1.20;1.10;;;;;;;6.97;62.41;98811.69;4901070;28;97182;-52
2022/01/09 02:50:43;;;;;;;0.80;0.80;;;;;;;6.97;62.95;98808.94;4902876;28;117761;-54
2022/01/09 02:53:20;;;;;;;1.10;1.10;;;;;;;6.92;62.81;98815.19;4905621;28;97605;-52
2022/01/09 02:55:46;;;;;;;1.00;0.90;;;;;;;6.91;63.00;98811.72;4902493;28;105274;-49
2022/01/09 02:58:12;;;;;;;0.80;0.73;;;;;;;6.92;63.06;98807.75;4902796;28;96738;-52
2022/01/09 03:00:42;;;;;;;1.33;0.80;;;;;;;6.91;62.68;98806.25;4905772;28;97078;-50
2022/01/09 03:03:08;;;;;;;0.87;0.87;;;;;;;6.88;62.97;98807.25;4903749;28;97942;-52
2022/01/09 03:05:33;;;;;;;0.87;0.87;;;;;;;6.84;63.09;98815.00;4904212;28;97587;-52
2022/01/09 03:07:59;;;;;;;1.23;0.87;;;;;;;6.85;63.11;98805.56;4903334;28;97435;-51
2022/01/09 03:10:25;;;;;;;1.03;1.03;;;;;;;6.84;62.78;98798.59;4903700;28;97118;-50
2022/01/09 03:12:52;;;;;;;1.27;1.10;;;;;;;6.86;63.14;98801.56;4891598;28;105540;-52
2022/01/09 03:15:18;;;;;;;0.90;0.90;;;;;;;6.85;63.00;98794.63;4883656;28;96952;-51
2022/01/09 03:17:44;;;;;;;0.90;0.90;;;;;;;6.85;63.56;98796.63;4889706;28;97919;-52
2022/01/09 03:20:13;;;;;;;1.23;1.13;;;;;;;6.85;62.88;98796.63;4888249;28;97203;-52
2022/01/09 03:22:38;;;;;;;0.87;0.87;;;;;;;6.84;63.12;98801.34;4904715;28;97635;-52
2022/01/09 03:25:05;;;;;;;1.87;1.07;;;;;;;6.84;63.30;98806.81;4884521;28;97387;-52
2022/01/09 03:27:30;;;;;;;0.90;0.90;;;;;;;6.87;63.53;98800.34;4890564;28;96709;-51
2022/01/09 03:29:55;;;;;;;1.03;0.93;;;;;;;6.87;63.21;98810.50;4890092;28;97022;-52
2022/01/09 03:32:21;;;;;;;0.93;0.93;;;;;;;6.85;63.42;98799.34;4883479;28;97184;-51
2022/01/09 03:34:46;;;;;;;1.00;1.00;;;;;;;6.83;63.08;98797.16;4887401;28;105630;-56
2022/01/09 03:37:12;;;;;;;0.97;0.97;;;;;;;6.82;63.33;98792.91;4884720;28;106579;-50
2022/01/09 03:39:37;;;;;;;0.60;0.60;;;;;;;6.78;63.48;98798.69;4886564;28;97150;-52
2022/01/09 03:42:03;;;;;;;0.80;0.63;;;;;;;6.75;63.46;98796.19;4886348;28;97109;-51
2022/01/09 03:44:28;;;;;;;0.70;0.70;;;;;;;6.72;63.70;98806.19;4885013;28;98813;-52
2022/01/09 03:46:55;;;;;;;1.13;1.13;;;;;;;6.72;63.68;98802.72;4903380;28;97220;-53
2022/01/09 03:49:21;;;;;;;1.33;1.00;;;;;;;6.70;63.89;98802.47;4903546;28;96832;-53
2022/01/09 03:51:50;;;;;;;0.90;0.90;;;;;;;6.66;63.99;98791.09;4902594;28;97007;-53
2022/01/09 03:54:17;;;;;;;1.27;0.90;;;;;;;6.64;63.83;98799.78;4905895;28;97085;-54
2022/01/09 03:56:42;;;;;;;1.20;0.60;;;;;;;6.64;63.92;98793.59;4900153;28;97778;-53
2022/01/09 03:59:07;;;;;;;0.80;0.77;;;;;;;6.63;63.90;98792.09;4902230;28;97417;-53
2022/01/09 04:01:33;;;;;;;1.47;1.10;;;;;;;6.63;63.85;98798.31;4904359;28;110052;-54
2022/01/09 04:03:58;;;;;;;1.10;1.10;;;;;;;6.60;63.95;98796.59;4899311;28;125323;-53
2022/01/09 04:06:24;;;;;;;0.90;0.90;;;;;;;6.59;63.71;98799.84;4902625;28;117010;-54
2022/01/09 04:08:51;;;;;;;1.50;0.73;;;;;;;6.60;64.44;98793.09;4905919;28;96923;-54
2022/01/09 04:11:23;;;;;;;0.73;0.73;;;;;;;6.61;64.11;98800.81;4903808;28;97574;-53
2022/01/09 04:13:49;;;;;;;1.23;0.87;;;;;;;6.62;63.93;98804.28;4884131;28;102070;-52
2022/01/09 04:16:14;;;;;;;1.60;0.80;;;;;;;6.59;63.82;98800.59;4899558;28;97052;-54
2022/01/09 04:18:39;;;;;;;0.90;0.90;;;;;;;6.60;64.18;98804.78;4903002;28;96839;-53
2022/01/09 04:21:05;;;;;;;1.00;1.00;;;;;;;6.60;63.78;98804.03;4905353;28;127121;-53
2022/01/09 04:23:30;;;;;;;1.00;1.00;;;;;;;6.57;64.00;98805.06;4904409;28;128433;-51
2022/01/09 04:25:55;;;;;;;1.93;1.20;;;;;;;6.54;64.25;98809.56;4907709;28;109726;-53
2022/01/09 04:28:21;;;;;;;1.50;1.13;;;;;;;6.57;64.28;98805.06;4904758;28;96759;-50
2022/01/09 04:30:46;;;;;;;0.93;0.93;;;;;;;6.57;64.30;98807.81;4904788;28;126167;-53
2022/01/09 04:33:11;;;;;;;1.27;0.93;;;;;;;6.57;63.98;98808.56;4905226;28;96843;-53
2022/01/09 04:35:38;;;;;;;1.00;0.90;;;;;;;6.57;64.27;98805.81;4905443;28;96813;-51
2022/01/09 04:38:05;;;;;;;1.20;0.87;;;;;;;6.56;64.25;98809.78;4904162;28;97000;-53
2022/01/09 04:40:30;;;;;;;1.10;1.00;;;;;;;6.55;63.99;98808.28;4906157;28;97605;-53
2022/01/09 04:42:59;;;;;;;2.00;1.33;;;;;;;6.52;64.36;98809.34;4907631;28;97313;-53
2022/01/09 04:45:26;;;;;;;0.93;0.73;;;;;;;6.51;64.05;98804.38;4902196;28;96905;-54
2022/01/09 04:47:54;;;;;;;1.20;0.87;;;;;;;6.49;64.54;98812.31;4906185;28;96883;-52
2022/01/09 04:50:25;;;;;;;0.90;0.90;;;;;;;6.47;64.59;98806.63;4905765;28;97379;-53
2022/01/09 04:53:01;;;;;;;1.07;0.93;;;;;;;6.44;64.51;98808.41;4909901;28;101592;-53
2022/01/09 04:55:28;;;;;;;0.77;0.77;;;;;;;6.44;64.63;98805.69;4906935;28;98097;-55
2022/01/09 04:57:53;;;;;;;1.00;1.00;;;;;;;6.46;64.67;98807.91;4906643;28;97328;-51
2022/01/09 05:00:19;;;;;;;0.90;0.90;;;;;;;6.48;64.83;98806.13;4905513;28;97479;-54
2022/01/09 05:02:44;;;;;;;1.10;1.10;;;;;;;6.44;64.32;98807.66;4906078;28;99837;-54
2022/01/09 05:05:10;;;;;;;1.00;1.00;;;;;;;6.43;64.68;98815.09;4905942;28;96948;-54
2022/01/09 05:07:37;;;;;;;0.77;0.77;;;;;;;6.45;64.58;98822.78;4905813;28;97214;-54
2022/01/09 05:10:04;;;;;;;1.57;1.00;;;;;;;6.45;64.78;98820.06;4907172;28;101986;-53
2022/01/09 05:12:29;;;;;;;1.03;0.93;;;;;;;6.43;64.80;98823.31;4895169;28;97271;-53
2022/01/09 05:14:54;;;;;;;1.00;1.00;;;;;;;6.45;64.79;98825.50;4893755;28;117868;-52
2022/01/09 05:17:20;;;;;;;0.80;0.80;;;;;;;6.48;64.79;98821.78;4904608;28;97259;-54
2022/01/09 05:19:46;;;;;;;1.17;1.07;;;;;;;6.50;64.39;98827.47;4906493;28;103413;-54
2022/01/09 05:22:12;;;;;;;1.20;1.10;;;;;;;6.48;64.78;98822.53;4908383;28;96687;-54
2022/01/09 05:24:37;;;;;;;0.87;0.87;;;;;;;6.46;64.81;98838.69;4905767;28;96774;-55
2022/01/09 05:27:03;;;;;;;0.80;0.80;;;;;;;6.44;64.74;98818.59;4907083;28;109625;-55
2022/01/09 05:29:28;;;;;;;1.03;1.03;;;;;;;6.46;64.63;98821.56;4905497;28;98250;-53
2022/01/09 05:31:54;;;;;;;0.70;0.70;;;;;;;6.47;65.14;98833.94;4907102;28;96930;-54
2022/01/09 05:34:19;;;;;;;0.80;0.80;;;;;;;6.48;64.52;98829.97;4906101;28;97088;-54
2022/01/09 05:36:44;;;;;;;2.30;1.43;;;;;;;6.50;64.60;98838.41;4907798;28;98097;-53
2022/01/09 05:39:10;;;;;;;1.13;1.13;;;;;;;6.51;64.94;98846.06;4905084;28;97364;-53
2022/01/09 05:41:37;;;;;;;0.60;0.60;;;;;;;6.51;64.54;98846.06;4903463;28;97132;-54
2022/01/09 05:44:02;;;;;;;1.03;0.93;;;;;;;6.51;65.11;98848.09;4907784;28;97184;-54
2022/01/09 05:46:27;;;;;;;1.53;1.03;;;;;;;6.50;64.75;98843.88;4904403;28;97546;-52
2022/01/09 05:48:54;;;;;;;1.27;1.00;;;;;;;6.51;64.70;98837.16;4906232;28;119227;-54
2022/01/09 05:51:19;;;;;;;1.13;1.03;;;;;;;6.50;65.05;98847.34;4903940;28;125319;-57
2022/01/09 05:53:44;;;;;;;0.57;0.57;;;;;;;6.50;65.09;98863.72;4907258;28;111027;-53
2022/01/09 05:56:10;;;;;;;1.97;0.87;;;;;;;6.48;65.03;98858.03;4905245;28;113193;-55
2022/01/09 05:58:35;;;;;;;1.13;1.10;;;;;;;6.52;64.87;98863.22;4906886;28;120615;-54
2022/01/09 06:01:03;;;;;;;0.83;0.83;;;;;;;6.52;64.99;98863.97;4904441;28;97038;-54
2022/01/09 06:03:28;;;;;;;2.80;1.10;;;;;;;6.52;65.26;98866.69;4901278;28;96762;-54
2022/01/09 06:05:54;;;;;;;1.20;1.17;;;;;;;6.53;65.00;98864.72;4907811;28;96922;-53
2022/01/09 06:08:19;;;;;;;1.60;1.50;;;;;;;6.53;64.86;98868.16;4905802;28;98567;-52
2022/01/09 06:10:44;;;;;;;1.10;1.00;;;;;;;6.55;65.17;98875.88;4902663;28;118556;-53
2022/01/09 06:13:09;;;;;;;1.30;1.10;;;;;;;6.56;65.10;98872.63;4906466;28;117235;-56
2022/01/09 06:15:35;;;;;;;1.90;1.70;;;;;;;6.58;65.00;98874.84;4906007;28;97007;-54
2022/01/09 06:18:00;;;;;;;2.70;2.50;;;;;;;6.60;64.83;98880.53;4903848;28;112649;-53
2022/01/09 06:20:25;;;;;;;3.97;3.27;;;;;;;6.60;65.04;98880.53;4901473;28;125685;-54
2022/01/09 06:22:51;;;;;;;3.00;2.77;;;;;;;6.61;64.86;98879.28;4903958;28;96889;-54
2022/01/09 06:25:16;;;;;;;2.43;2.20;;;;;;;6.61;64.91;98877.31;4903143;28;102470;-54
2022/01/09 06:27:42;;;;;;;1.50;1.40;;;;;;;6.61;65.13;98879.28;4906962;28;98733;-55
2022/01/09 06:30:08;;;;;;;1.50;1.40;;;;;;;6.63;65.01;98885.00;4902099;28;98360;-55
2022/01/09 06:32:34;;;;;;;3.40;1.80;;;;;;;6.63;65.20;98890.44;4902930;28;96782;-54
2022/01/09 06:34:59;;;;;;;1.40;1.30;;;;;;;6.63;64.76;98890.44;4906163;28;96933;-55
2022/01/09 06:37:24;;;;;;;1.30;1.20;;;;;;;6.63;65.07;98890.44;4903077;28;97283;-55
2022/01/09 06:39:49;;;;;;;1.10;1.10;;;;;;;6.62;65.16;98895.16;4903903;28;124266;-53
2022/01/09 06:42:15;;;;;;;1.50;1.40;;;;;;;6.59;65.18;98900.91;4902405;28;116390;-54
2022/01/09 06:44:40;;;;;;;0.93;0.93;;;;;;;6.60;65.23;98900.41;4905709;28;96814;-54
2022/01/09 06:47:06;;;;;;;0.93;0.93;;;;;;;6.60;65.13;98908.59;4901593;28;107185;-54
2022/01/09 06:49:31;;;;;;;1.30;1.30;;;;;;;6.61;65.12;98909.34;4904681;28;97918;-52
2022/01/09 06:51:56;;;;;;;1.53;1.10;;;;;;;6.60;65.01;98907.84;4903958;28;97065;-54
2022/01/09 06:54:22;;;;;;;1.43;1.17;;;;;;;6.61;65.10;98915.56;4904267;28;96961;-54
2022/01/09 06:56:48;;;;;;;1.33;1.23;;;;;;;6.64;65.37;98924.72;4906561;28;96771;-55
2022/01/09 06:59:13;;;;;;;1.33;1.33;;;;;;;6.64;65.18;98924.72;4903493;28;98710;-54
2022/01/09 07:01:39;;;;;;;1.63;1.53;;;;;;;6.64;65.15;98925.44;4906563;28;97146;-51
2022/01/09 07:04:04;;;;;;;1.50;1.40;;;;;;;6.66;65.18;98933.16;4900481;28;97357;-52
2022/01/09 07:06:29;;;;;;;1.30;1.20;;;;;;;6.64;65.13;98954.78;4904001;28;97645;-54
2022/01/09 07:08:55;;;;;;;1.37;1.27;;;;;;;6.65;65.35;98942.59;4902764;28;122429;-54
2022/01/09 07:11:20;;;;;;;1.60;1.50;;;;;;;6.66;65.33;98953.00;4903757;28;97063;-51
2022/01/09 07:13:46;;;;;;;1.47;1.37;;;;;;;6.67;65.14;98949.03;4906359;28;98656;-53
2022/01/09 07:16:11;;;;;;;1.30;1.23;;;;;;;6.67;65.44;98946.31;4903719;28;96883;-54
2022/01/09 07:18:36;;;;;;;1.60;1.50;;;;;;;6.67;65.13;98962.69;4918332;28;96883;-54
2022/01/09 07:21:03;;;;;;;1.60;1.50;;;;;;;6.65;65.50;98978.13;4902999;28;97082;-54
2022/01/09 07:23:29;;;;;;;4.80;1.50;;;;;;;6.65;65.30;98965.19;4905807;28;96894;-54
2022/01/09 07:25:54;;;;;;;1.43;1.33;;;;;;;6.68;65.37;98968.91;4904171;28;97438;-54
2022/01/09 07:28:19;;;;;;;1.50;1.40;;;;;;;6.68;65.36;98977.09;4902368;28;123165;-54
2022/01/09 07:30:45;;;;;;;1.50;1.37;;;;;;;6.68;65.71;98977.09;4903646;28;96841;-53
2022/01/09 07:33:10;;;;;;;1.57;1.47;;;;;;;6.67;65.37;98990.03;4901234;28;97073;-54
2022/01/09 07:35:36;;;;;;;1.07;1.07;;;;;;;6.68;65.36;98996.25;4905075;28;97075;-55
2022/01/09 07:38:01;;;;;;;1.90;1.80;;;;;;;6.68;65.56;98990.78;4906588;28;97247;-55
2022/01/09 07:40:28;;;;;;;1.63;1.53;;;;;;;6.69;65.41;98992.25;4903986;28;103236;-55
2022/01/09 07:42:53;;;;;;;1.60;1.50;;;;;;;6.68;65.34;99007.16;4906597;28;96803;-55
2022/01/09 07:45:24;;;;;;;1.47;1.37;;;;;;;6.67;65.43;99008.41;4904935;28;98662;-52
2022/01/09 07:47:50;;;;;;;1.70;1.60;;;;;;;6.63;65.67;99010.66;4903759;28;97361;-55
2022/01/09 07:50:15;;;;;;;1.50;1.40;;;;;;;6.65;65.69;99005.44;4911308;28;97632;-55
2022/01/09 07:52:41;;;;;;;1.50;1.40;;;;;;;6.59;65.56;99021.13;4906062;28;96660;-55
2022/01/09 07:55:08;;;;;;;1.20;1.20;;;;;;;6.54;65.61;99021.88;4903930;28;98706;-60
2022/01/09 07:57:34;;;;;;;3.47;1.50;;;;;;;6.52;65.86;99027.09;4905604;28;97451;-55
2022/01/09 08:00:03;;;;;;;1.23;1.23;;;;;;;6.48;65.86;99043.00;4903972;28;97003;-54
2022/01/09 08:02:29;;;;;;;2.10;1.20;;;;;;;6.50;65.76;99030.34;4904177;28;96901;-54
2022/01/09 08:04:54;;;;;;;1.20;1.20;;;;;;;6.54;65.89;99041.75;4902014;28;97340;-55
2022/01/09 08:07:20;;;;;;;1.00;1.00;;;;;;;6.56;65.88;99033.03;4900846;28;126402;-51
2022/01/09 08:09:46;;;;;;;0.80;0.80;;;;;;;6.55;65.83;99048.69;4906121;28;96885;-55
2022/01/09 08:12:14;;;;;;;0.50;0.50;;;;;;;6.49;65.94;99049.94;4905616;28;96722;-55
2022/01/09 08:14:43;;;;;;;0.80;0.80;;;;;;;6.41;65.88;99052.47;4901234;28;97685;-54
2022/01/09 08:17:09;;;;;;;0.80;0.80;;;;;;;6.37;65.95;99049.28;4901335;28;97026;-55
2022/01/09 08:19:35;;;;;;;0.50;0.50;;;;;;;6.37;65.73;99049.28;4906566;28;96914;-54
2022/01/09 08:22:05;;;;;;;0.50;0.50;;;;;;;6.36;65.84;99053.22;4903896;28;96550;-55
2022/01/09 08:24:31;;;;;;;0.60;0.60;;;;;;;6.39;66.00;99057.69;4904049;28;97471;-54
2022/01/09 08:26:57;;;;;;;0.70;0.70;;;;;;;6.35;65.70;99056.47;4901506;28;97264;-55
2022/01/09 08:29:22;;;;;;;0.60;0.60;;;;;;;6.33;65.55;99062.44;4900896;28;97131;-54
2022/01/09 08:31:48;;;;;;;0.60;0.60;;;;;;;6.37;66.27;99064.91;4906112;28;96763;-54
2022/01/09 08:34:13;;;;;;;0.80;0.80;;;;;;;6.41;65.95;99070.84;4901688;28;98317;-55
2022/01/09 08:36:39;;;;;;;0.60;0.60;;;;;;;6.43;66.03;99073.81;4917297;22;124311;-53
2022/01/09 08:39:05;;;;;;;0.70;0.70;;;;;;;6.45;65.87;99072.06;4904941;28;97075;-53
2022/01/09 08:41:31;;;;;;;0.67;0.67;;;;;;;6.47;66.13;99074.28;4910425;28;96875;-52
2022/01/09 08:43:56;;;;;;;0.60;0.60;;;;;;;6.50;65.58;99079.50;4907166;28;96658;-53
2022/01/09 08:46:22;;;;;;;0.70;0.70;;;;;;;6.53;66.00;99085.97;4900041;28;97625;-53
2022/01/09 08:48:48;;;;;;;0.63;0.63;;;;;;;6.54;65.46;99085.44;4887839;28;97146;-53
2022/01/09 08:51:14;;;;;;;0.80;0.80;;;;;;;6.54;65.57;99101.09;4890236;28;97304;-53
2022/01/09 08:53:40;;;;;;;0.70;0.70;;;;;;;6.53;65.52;99092.16;4892783;28;121760;-53
2022/01/09 08:56:06;;;;;;;0.80;0.80;;;;;;;6.57;65.58;99089.19;4885821;28;98441;-53
2022/01/09 08:58:32;;;;;;;0.70;0.70;;;;;;;6.56;65.59;99096.63;4894318;28;108044;-53
2022/01/09 09:00:58;;;;;;;0.70;0.70;;;;;;;6.58;65.68;99096.09;4889429;28;96951;-53
2022/01/09 09:03:24;;;;;;;0.70;0.70;;;;;;;6.60;65.71;99093.63;4896226;28;97259;-53
2022/01/09 09:05:49;;;;;;;1.00;0.90;;;;;;;6.60;65.69;99094.38;4895777;28;97661;-53
2022/01/09 09:08:15;;;;;;;0.80;0.80;;;;;;;6.62;65.88;99102.06;4896750;28;97228;-50
2022/01/09 09:10:40;;;;;;;1.10;1.00;;;;;;;6.62;65.60;99108.25;4895165;28;96692;-53
2022/01/09 09:13:06;;;;;;;1.10;1.10;;;;;;;6.63;65.68;99114.47;4892031;28;97228;-53
2022/01/09 09:15:32;;;;;;;0.90;0.90;;;;;;;6.65;65.63;99111.97;4896419;28;97190;-50
2022/01/09 09:17:57;;;;;;;1.43;1.07;;;;;;;6.65;65.67;99110.00;4890020;28;97107;-53
2022/01/09 09:20:23;;;;;;;0.80;0.80;;;;;;;6.65;65.72;99131.13;4894602;28;97080;-53
2022/01/09 09:22:49;;;;;;;1.10;1.10;;;;;;;6.66;65.61;99130.59;4896380;28;97391;-53
2022/01/09 09:25:14;;;;;;;1.07;0.97;;;;;;;6.69;65.65;99128.84;4894868;28;96981;-52
2022/01/09 09:27:39;;;;;;;2.00;1.10;;;;;;;6.70;65.68;99135.81;4893111;28;97007;-53
2022/01/09 09:30:05;;;;;;;1.20;1.20;;;;;;;6.72;65.92;99147.00;4895640;28;96721;-53
2022/01/09 09:32:31;;;;;;;1.10;1.00;;;;;;;6.69;65.58;99139.78;4896876;28;97353;-51
2022/01/09 09:34:56;;;;;;;1.00;1.00;;;;;;;6.71;65.79;99143.50;4890675;28;103489;-53
2022/01/09 09:37:22;;;;;;;1.50;1.50;;;;;;;6.75;65.59;99149.44;4894270;28;97043;-53
2022/01/09 09:39:51;;;;;;;2.80;1.50;;;;;;;6.79;65.88;99149.22;4891206;28;97300;-53
2022/01/09 09:42:17;;;;;;;1.20;1.20;;;;;;;6.81;65.74;99158.38;4892421;28;97668;-53
2022/01/09 09:44:42;;;;;;;1.33;1.23;;;;;;;6.84;65.70;99164.81;4889257;28;97085;-55
2022/01/09 09:47:10;;;;;;;1.73;1.50;;;;;;;6.87;65.40;99161.09;4894543;28;115839;-51
2022/01/09 09:49:35;;;;;;;1.63;1.53;;;;;;;6.89;65.65;99155.88;4898430;28;99877;-51
2022/01/09 09:52:00;;;;;;;2.07;1.97;;;;;;;6.90;65.42;99162.09;4890869;28;124200;-53
2022/01/09 09:54:25;;;;;;;5.53;1.60;;;;;;;6.92;65.77;99163.06;4897972;28;126337;-55
2022/01/09 09:56:52;;;;;;;2.00;1.80;;;;;;;6.93;65.61;99164.53;4890716;28;117418;-53
2022/01/09 09:59:35;;;;;;;1.77;1.67;;;;;;;6.96;66.11;99177.22;4892710;28;96997;-54
2022/01/09 10:02:00;;;;;;;2.40;1.73;;;;;;;6.98;65.89;99185.66;4890474;28;100583;-53
2022/01/09 10:04:25;;;;;;;1.40;1.30;;;;;;;6.99;66.02;99184.41;4892357;28;125341;-51
2022/01/09 10:06:51;;;;;;;1.83;1.73;;;;;;;6.98;65.55;99173.97;4897273;28;101115;-53
2022/01/09 10:09:20;;;;;;;1.60;1.50;;;;;;;7.00;65.75;99176.94;4886340;28;97406;-51
2022/01/09 10:11:57;;;;;;;1.60;1.50;;;;;;;7.04;66.23;99180.91;4894374;28;98629;-53
2022/01/09 10:14:25;;;;;;;1.37;1.37;;;;;;;7.07;65.72;99187.38;4892881;28;97251;-53
2022/01/09 10:17:13;;;;;;;2.50;2.30;;;;;;;7.09;66.15;99190.34;4890574;28;96970;-53
2022/01/09 10:19:58;;;;;;;2.07;1.90;;;;;;;7.13;66.26;99182.59;4895033;28;97238;-54
2022/01/09 10:22:28;;;;;;;2.97;2.70;;;;;;;7.15;66.11;99191.81;4887544;28;100804;-53
2022/01/09 10:24:55;;;;;;;2.37;2.17;;;;;;;7.19;66.15;99188.78;4892372;28;96977;-53
2022/01/09 10:27:26;;;;;;;2.27;2.07;;;;;;;7.21;66.09;99194.50;4889465;28;97005;-53
2022/01/09 10:29:53;;;;;;;3.30;2.47;;;;;;;7.26;66.17;99199.97;4888879;28;101713;-57
2022/01/09 10:32:20;;;;;;;4.57;2.60;;;;;;;7.30;66.08;99208.63;4891299;28;97003;-53
2022/01/09 10:35:05;;;;;;;3.70;2.17;;;;;;;7.33;66.54;99207.63;4890560;28;98602;-53
2022/01/09 10:37:31;;;;;;;2.03;1.83;;;;;;;7.38;66.44;99211.59;4893109;28;96994;-52
2022/01/09 10:40:00;;;;;;;2.63;1.80;;;;;;;7.42;66.50;99220.28;4891846;28;98618;-51
2022/01/09 10:42:26;;;;;;;2.10;2.00;;;;;;;7.46;66.22;99221.50;4894840;28;96971;-52
2022/01/09 10:44:51;;;;;;;1.50;1.40;;;;;;;7.49;66.29;99225.94;4886860;28;97543;-53
2022/01/09 10:47:17;;;;;;;2.43;2.00;;;;;;;7.54;66.60;99224.44;4892446;28;105227;-53
2022/01/09 10:49:51;;;;;;;2.57;1.40;;;;;;;7.58;66.45;99230.38;4890412;28;96772;-53
2022/01/09 10:52:29;;;;;;;1.90;1.10;;;;;;;7.62;66.82;99232.84;4887059;28;98131;-54
2022/01/09 10:54:57;;;;;;;1.43;1.07;;;;;;;7.65;66.45;99251.00;4890358;28;96854;-53
2022/01/09 10:57:32;;;;;;;2.77;1.47;;;;;;;7.72;66.33;99244.97;4890397;28;96910;-53
2022/01/09 11:00:10;;;;;;;3.30;1.53;;;;;;;7.78;66.73;99251.16;4889137;28;97015;-53
2022/01/09 11:02:36;;;;;;;1.80;1.10;;;;;;;7.81;66.45;99255.63;4896607;28;97938;-53
2022/01/09 11:05:01;;;;;;;5.17;1.13;;;;;;;7.86;66.66;99257.59;4889000;28;97095;-53
2022/01/09 11:07:27;;;;;;;2.43;1.10;;;;;;;7.92;66.41;99266.53;4899210;28;96880;-53
2022/01/09 11:09:53;;;;;;;1.33;0.70;;;;;;;7.96;66.74;99267.00;4889080;28;112391;-53
2022/01/09 11:12:21;;;;;;;3.03;1.00;;;;;;;7.98;66.74;99261.75;4891352;28;97341;-52
2022/01/09 11:14:49;;;;;;;3.40;2.50;;;;;;;7.99;66.64;99264.00;4889315;28;98100;-53
2022/01/09 11:17:16;;;;;;;3.23;2.70;;;;;;;8.03;66.58;99266.44;4887726;28;97177;-53
2022/01/09 11:19:42;;;;;;;2.60;2.40;;;;;;;8.04;66.48;99276.13;4891733;28;97235;-50
2022/01/09 11:22:10;;;;;;;4.10;1.50;;;;;;;8.05;66.61;99277.63;4887048;28;97124;-53
2022/01/09 11:24:51;;;;;;;1.73;1.47;;;;;;;8.05;66.97;99277.63;4894769;28;98298;-54
2022/01/09 11:27:16;;;;;;;1.57;1.47;;;;;;;8.04;66.89;99287.09;4889672;28;98594;-53
2022/01/09 11:30:09;;;;;;;2.40;1.23;;;;;;;8.06;67.20;99290.09;4898151;28;97740;-53
2022/01/09 11:33:06;;;;;;;3.23;1.30;;;;;;;8.10;66.92;99298.78;4891385;28;100769;-53
2022/01/09 11:35:46;;;;;;;2.10;1.23;;;;;;;8.12;66.95;99294.28;4886938;28;100178;-53